Time;durP1;ratioP1;P1;durP2;ratioP2;P2;SDS_P1;SDS_P2;PMS_P1;PMS_P2;Temp;Humidity;BMP_temperature;BMP_pressure;BME280_temperature;BME280_humidity;BME280_pressure;Samples;Min_cycle;Max_cycle;Signal;HPM_P1;HPM_P2
2021/12/28 00:01:25;;;;;;;25.38;17.10;;;3.30;99.90;;;;;;5008736;28;20126;-77
2021/12/28 00:03:51;;;;;;;27.25;16.80;;;3.20;99.90;;;;;;5009375;28;20046;-77
2021/12/28 00:06:18;;;;;;;26.63;17.02;;;3.30;99.90;;;;;;5009526;28;20033;-78
2021/12/28 00:08:44;;;;;;;28.73;17.13;;;3.30;99.90;;;;;;5009815;28;20041;-78
2021/12/28 00:11:11;;;;;;;30.83;18.42;;;3.30;99.90;;;;;;5006755;28;20041;-78
2021/12/28 00:13:37;;;;;;;26.33;17.63;;;3.30;99.90;;;;;;5007857;28;20039;-77
2021/12/28 00:18:30;;;;;;;29.52;17.55;;;3.30;99.90;;;;;;5003019;28;20407;-78
2021/12/28 00:20:58;;;;;;;31.02;18.35;;;3.30;99.90;;;;;;4996550;28;20125;-78
2021/12/28 00:23:33;;;;;;;31.85;18.30;;;3.40;99.90;;;;;;4991801;28;20043;-78
2021/12/28 00:25:59;;;;;;;30.67;17.98;;;3.40;99.90;;;;;;4994333;28;20083;-77
2021/12/28 00:28:25;;;;;;;27.23;18.10;;;3.40;99.90;;;;;;4997212;28;20045;-77
2021/12/28 00:30:52;;;;;;;28.95;18.65;;;3.40;99.90;;;;;;5010449;28;20052;-77
2021/12/28 00:33:20;;;;;;;29.10;18.70;;;3.40;99.90;;;;;;5009929;28;20403;-77
2021/12/28 00:35:46;;;;;;;30.48;19.10;;;3.50;99.90;;;;;;5001753;28;20053;-77
2021/12/28 00:38:18;;;;;;;30.48;19.08;;;3.50;99.90;;;;;;4983352;28;20538;-77
2021/12/28 00:40:43;;;;;;;33.30;18.88;;;3.60;99.90;;;;;;5007008;28;20076;-77
2021/12/28 00:43:09;;;;;;;33.75;18.83;;;3.60;99.90;;;;;;5007446;28;20128;-77
2021/12/28 00:45:35;;;;;;;34.80;20.00;;;3.60;99.90;;;;;;5005523;28;20620;-77
2021/12/28 00:48:00;;;;;;;31.08;19.42;;;3.60;99.90;;;;;;5005006;28;20037;-76
2021/12/28 00:50:27;;;;;;;35.03;20.83;;;3.60;99.90;;;;;;5008181;28;20052;-77
2021/12/28 00:52:55;;;;;;;35.25;20.00;;;3.70;99.90;;;;;;4996356;28;20030;-76
2021/12/28 00:55:21;;;;;;;34.10;20.35;;;3.70;99.90;;;;;;4988892;28;20038;-77
2021/12/28 00:57:47;;;;;;;33.33;20.73;;;3.70;99.90;;;;;;5007836;28;20575;-77
2021/12/28 01:00:17;;;;;;;33.55;21.02;;;3.70;99.90;;;;;;5006522;28;20381;-76
2021/12/28 01:02:43;;;;;;;37.58;21.55;;;3.70;99.90;;;;;;5006936;28;20039;-76
2021/12/28 01:05:09;;;;;;;39.55;22.13;;;3.70;99.90;;;;;;5003727;28;20065;-77
2021/12/28 01:07:35;;;;;;;38.63;22.17;;;3.70;99.90;;;;;;4999095;28;20125;-77
2021/12/28 01:10:03;;;;;;;39.47;22.02;;;3.70;99.90;;;;;;4992733;28;20031;-77
2021/12/28 01:12:29;;;;;;;38.03;21.90;;;3.70;99.90;;;;;;5005143;28;20042;-77
2021/12/28 01:14:54;;;;;;;36.42;22.08;;;3.80;99.90;;;;;;4997800;28;20033;-77
2021/12/28 01:17:20;;;;;;;42.58;23.30;;;3.80;99.90;;;;;;5005212;28;20050;-77
2021/12/28 01:19:45;;;;;;;46.85;23.60;;;3.80;99.90;;;;;;5007626;28;20054;-77
2021/12/28 01:22:11;;;;;;;43.42;23.35;;;3.80;99.90;;;;;;5006934;28;20075;-77
2021/12/28 01:24:36;;;;;;;48.70;24.40;;;3.80;99.90;;;;;;4994763;28;20050;-77
2021/12/28 01:27:02;;;;;;;47.83;25.25;;;3.80;99.90;;;;;;4995731;28;20035;-76
2021/12/28 01:29:28;;;;;;;53.08;25.23;;;3.90;99.90;;;;;;5003033;28;20091;-77
2021/12/28 01:31:53;;;;;;;49.20;25.70;;;4.00;99.90;;;;;;4993036;28;20039;-77
2021/12/28 01:34:20;;;;;;;50.60;26.60;;;3.90;99.90;;;;;;5004058;28;20045;-78
2021/12/28 01:36:45;;;;;;;55.28;26.15;;;3.90;99.90;;;;;;5010720;28;20046;-77
2021/12/28 01:39:11;;;;;;;54.15;26.60;;;4.00;99.90;;;;;;5000012;28;20073;-77
2021/12/28 01:41:37;;;;;;;58.92;27.33;;;4.00;99.90;;;;;;5012012;28;20046;-77
2021/12/28 01:44:06;;;;;;;60.40;27.58;;;4.00;99.90;;;;;;5003225;28;20410;-77
2021/12/28 01:46:33;;;;;;;78.53;28.95;;;4.00;99.90;;;;;;5009485;28;20403;-77
2021/12/28 01:48:59;;;;;;;65.85;28.60;;;4.00;99.90;;;;;;5010653;28;20121;-77
2021/12/28 01:51:26;;;;;;;80.63;29.77;;;4.10;99.90;;;;;;5009315;28;20124;-77
2021/12/28 01:53:56;;;;;;;87.47;30.23;;;4.10;99.90;;;;;;5028030;28;20038;-76
2021/12/28 01:56:26;;;;;;;117.82;32.33;;;4.10;99.90;;;;;;4995773;28;20048;-77
2021/12/28 01:58:53;;;;;;;83.32;30.92;;;4.20;99.90;;;;;;5003166;28;20042;-77
2021/12/28 02:01:19;;;;;;;72.65;31.48;;;4.20;99.90;;;;;;5003517;28;20454;-77
2021/12/28 02:03:46;;;;;;;88.63;32.42;;;4.30;99.90;;;;;;5011161;28;20049;-78
2021/12/28 02:06:12;;;;;;;96.80;33.63;;;4.30;99.90;;;;;;5012146;28;20092;-77
2021/12/28 02:08:39;;;;;;;105.35;33.40;;;4.40;99.90;;;;;;5011646;28;20048;-77
2021/12/28 02:11:07;;;;;;;126.78;35.05;;;4.40;99.90;;;;;;4988975;28;20038;-77
2021/12/28 02:13:33;;;;;;;156.60;35.53;;;4.40;99.90;;;;;;5004350;28;20034;-77
2021/12/28 02:16:00;;;;;;;103.72;34.33;;;4.40;99.90;;;;;;4996356;28;20084;-77
2021/12/28 02:18:27;;;;;;;165.68;37.58;;;4.40;99.90;;;;;;5010901;28;20046;-77
2021/12/28 02:20:55;;;;;;;135.55;35.60;;;4.50;99.90;;;;;;5005377;28;20088;-77
2021/12/28 02:23:20;;;;;;;122.10;35.00;;;4.40;99.90;;;;;;5003955;28;20038;-77
2021/12/28 02:25:46;;;;;;;104.90;34.45;;;4.50;99.90;;;;;;4997778;28;20521;-77
2021/12/28 02:28:13;;;;;;;151.32;35.90;;;4.50;99.90;;;;;;5003340;28;20403;-77
2021/12/28 02:30:41;;;;;;;148.38;37.25;;;4.60;99.90;;;;;;4999434;28;20049;-77
2021/12/28 02:33:07;;;;;;;195.57;39.38;;;4.60;99.90;;;;;;5009201;28;20458;-77
2021/12/28 02:35:33;;;;;;;172.30;37.70;;;4.60;99.90;;;;;;5008378;28;20038;-77
2021/12/28 02:37:59;;;;;;;218.57;40.08;;;4.60;99.90;;;;;;5007125;28;20080;-77
2021/12/28 02:40:28;;;;;;;337.23;43.95;;;4.80;99.90;;;;;;5007349;28;20440;-77
2021/12/28 02:42:56;;;;;;;194.93;39.90;;;4.70;99.90;;;;;;4994856;28;20085;-77
2021/12/28 02:45:48;;;;;;;194.82;40.63;;;4.90;99.90;;;;;;5002726;28;20041;-77
2021/12/28 02:48:14;;;;;;;189.48;40.95;;;4.90;99.90;;;;;;4986135;28;20085;-77
2021/12/28 02:50:43;;;;;;;282.73;42.42;;;4.90;99.90;;;;;;5010931;28;20061;-78
2021/12/28 02:53:11;;;;;;;223.77;38.42;;;4.90;99.90;;;;;;4994337;28;20069;-77
2021/12/28 02:55:39;;;;;;;154.20;38.05;;;4.80;99.90;;;;;;4999283;28;20042;-77
2021/12/28 02:58:10;;;;;;;145.60;38.83;;;4.80;99.90;;;;;;5007843;28;20503;-77
2021/12/28 03:00:47;;;;;;;290.08;42.42;;;4.90;99.90;;;;;;4996752;28;20042;-78
2021/12/28 03:03:18;;;;;;;174.75;40.53;;;5.00;99.90;;;;;;5009233;28;20042;-77
2021/12/28 03:05:45;;;;;;;216.15;40.78;;;5.00;99.90;;;;;;5010203;28;20046;-77
2021/12/28 03:08:11;;;;;;;336.30;42.47;;;5.00;99.90;;;;;;5005127;28;20038;-78
2021/12/28 03:10:38;;;;;;;236.98;40.75;;;4.90;99.90;;;;;;4997441;28;20046;-77
2021/12/28 03:13:05;;;;;;;210.68;40.38;;;5.00;99.90;;;;;;5008506;28;20034;-77
2021/12/28 03:15:31;;;;;;;198.70;40.08;;;4.90;99.90;;;;;;5008923;28;20422;-77
2021/12/28 03:17:57;;;;;;;250.70;40.50;;;5.00;99.90;;;;;;4980376;28;20037;-78
2021/12/28 03:20:23;;;;;;;224.45;39.30;;;5.00;99.90;;;;;;5011029;28;20042;-77
2021/12/28 03:22:48;;;;;;;177.18;40.58;;;5.00;99.90;;;;;;4997818;28;20048;-77
2021/12/28 03:25:14;;;;;;;278.65;43.03;;;5.00;99.90;;;;;;4991582;28;20046;-77
2021/12/28 03:27:41;;;;;;;327.42;43.47;;;5.10;99.90;;;;;;5010255;28;20387;-77
2021/12/28 03:30:09;;;;;;;161.60;39.92;;;5.00;99.90;;;;;;4993551;28;20574;-78
2021/12/28 03:32:35;;;;;;;267.30;42.90;;;5.10;99.90;;;;;;5003582;28;20038;-77
2021/12/28 03:35:03;;;;;;;243.95;41.63;;;5.10;99.90;;;;;;5004231;28;20558;-77
2021/12/28 03:37:33;;;;;;;172.85;38.85;;;5.10;99.90;;;;;;4999497;28;20041;-77
2021/12/28 03:39:59;;;;;;;196.73;39.08;;;5.00;99.90;;;;;;5008411;28;20479;-77
2021/12/28 03:42:26;;;;;;;453.42;51.78;;;5.10;99.90;;;;;;5005642;28;20041;-77
2021/12/28 03:44:52;;;;;;;241.77;42.08;;;5.10;99.90;;;;;;5010070;28;20121;-78
2021/12/28 03:47:17;;;;;;;338.33;45.85;;;5.10;99.90;;;;;;5008722;28;20042;-78
2021/12/28 03:49:43;;;;;;;185.73;38.63;;;5.10;99.90;;;;;;4999003;28;20180;-78
2021/12/28 03:52:09;;;;;;;247.70;43.78;;;5.00;99.90;;;;;;5002944;28;20042;-77
2021/12/28 03:54:35;;;;;;;182.45;41.10;;;5.10;99.90;;;;;;5009634;28;20091;-77
2021/12/28 03:57:01;;;;;;;218.35;40.65;;;5.10;99.90;;;;;;5008788;28;20062;-78
2021/12/28 03:59:27;;;;;;;184.20;40.95;;;5.20;99.90;;;;;;4998395;28;20551;-78
2021/12/28 04:01:52;;;;;;;196.00;38.63;;;5.10;99.90;;;;;;4996998;28;20118;-77
2021/12/28 04:04:19;;;;;;;189.35;40.13;;;5.10;99.90;;;;;;5002868;28;20053;-77
2021/12/28 04:06:44;;;;;;;197.30;40.28;;;5.10;99.90;;;;;;5001584;28;20057;-78
2021/12/28 04:09:12;;;;;;;188.90;38.75;;;5.20;99.90;;;;;;5009043;28;20038;-78
2021/12/28 04:11:39;;;;;;;566.75;51.72;;;5.20;99.90;;;;;;4990958;28;20049;-77
2021/12/28 04:14:06;;;;;;;211.52;39.72;;;5.10;99.90;;;;;;5007393;28;20037;-77
2021/12/28 04:16:33;;;;;;;169.68;38.53;;;5.10;99.90;;;;;;4974261;28;20126;-78
2021/12/28 04:19:00;;;;;;;188.20;39.47;;;5.10;99.90;;;;;;4986688;28;20030;-77
2021/12/28 04:21:26;;;;;;;184.77;39.63;;;5.20;99.90;;;;;;4979745;28;20096;-77
2021/12/28 04:23:52;;;;;;;196.38;39.17;;;5.20;99.90;;;;;;5009340;28;20042;-78
2021/12/28 04:26:18;;;;;;;241.38;42.75;;;5.20;99.90;;;;;;5009213;28;20530;-78
2021/12/28 04:28:44;;;;;;;170.77;41.35;;;5.20;99.90;;;;;;5007165;28;20050;-78
2021/12/28 04:31:11;;;;;;;181.35;39.50;;;5.20;99.90;;;;;;5005217;28;20042;-77
2021/12/28 04:33:38;;;;;;;192.85;39.90;;;5.20;99.90;;;;;;5009377;28;20038;-78
2021/12/28 04:36:10;;;;;;;200.02;39.78;;;5.30;99.90;;;;;;5006215;28;20496;-77
2021/12/28 04:38:37;;;;;;;199.73;40.72;;;5.20;99.90;;;;;;5005366;28;20084;-78
2021/12/28 04:41:03;;;;;;;162.45;38.63;;;5.30;99.90;;;;;;5003738;28;20065;-77
2021/12/28 04:43:29;;;;;;;207.30;38.63;;;5.20;99.90;;;;;;5006100;28;20045;-78
2021/12/28 04:45:55;;;;;;;199.50;40.40;;;5.20;99.90;;;;;;5000356;28;20081;-78
2021/12/28 04:48:20;;;;;;;176.25;40.72;;;5.30;99.90;;;;;;4990574;28;20044;-78
2021/12/28 04:50:46;;;;;;;191.23;40.58;;;5.40;99.90;;;;;;5004491;28;20042;-78
2021/12/28 04:53:13;;;;;;;194.52;39.83;;;5.40;99.90;;;;;;5001313;28;20419;-78
2021/12/28 04:55:44;;;;;;;179.85;39.85;;;5.40;99.90;;;;;;4974122;28;20050;-78
2021/12/28 04:58:11;;;;;;;218.90;40.00;;;5.50;99.90;;;;;;5004291;28;20052;-78
2021/12/28 05:00:36;;;;;;;197.27;39.80;;;5.40;99.90;;;;;;4991123;28;20069;-78
2021/12/28 05:03:03;;;;;;;195.48;39.00;;;5.40;99.90;;;;;;4996391;28;20471;-78
2021/12/28 05:05:28;;;;;;;233.30;39.30;;;5.40;99.90;;;;;;5008939;28;20053;-78
2021/12/28 05:07:54;;;;;;;181.43;40.60;;;5.40;99.90;;;;;;5007481;28;20030;-78
2021/12/28 05:10:20;;;;;;;185.70;38.85;;;5.40;99.90;;;;;;4994628;28;20408;-78
2021/12/28 05:12:46;;;;;;;188.65;40.55;;;5.40;99.90;;;;;;4980664;28;20050;-78
2021/12/28 05:15:12;;;;;;;192.35;39.17;;;5.40;99.90;;;;;;5005193;28;20042;-78
2021/12/28 05:17:38;;;;;;;234.45;40.05;;;5.30;99.90;;;;;;5007820;28;20041;-78
2021/12/28 05:20:06;;;;;;;182.10;39.70;;;5.40;99.90;;;;;;5012602;28;20164;-78
2021/12/28 05:22:32;;;;;;;207.52;40.67;;;5.30;99.90;;;;;;5007929;28;20570;-77
2021/12/28 05:24:57;;;;;;;197.55;40.53;;;5.30;99.90;;;;;;5008882;28;20037;-78
2021/12/28 05:27:23;;;;;;;174.93;39.58;;;5.30;99.90;;;;;;5012028;28;20129;-78
2021/12/28 05:29:49;;;;;;;169.27;39.75;;;5.30;99.90;;;;;;5011546;28;20040;-78
2021/12/28 05:32:15;;;;;;;164.55;40.30;;;5.30;99.90;;;;;;5012219;28;20123;-78
2021/12/28 05:34:41;;;;;;;162.77;40.90;;;5.40;99.90;;;;;;5012015;28;20065;-78
2021/12/28 05:37:07;;;;;;;148.73;37.53;;;5.40;99.90;;;;;;5006314;28;20116;-78
2021/12/28 05:39:32;;;;;;;135.88;36.65;;;5.40;99.90;;;;;;5008264;28;20037;-78
2021/12/28 05:41:58;;;;;;;139.52;34.72;;;5.30;99.90;;;;;;5009643;28;20053;-78
2021/12/28 05:44:24;;;;;;;138.15;35.67;;;5.30;99.90;;;;;;5008937;28;20038;-78
2021/12/28 05:46:50;;;;;;;141.68;35.63;;;5.40;99.90;;;;;;5012531;28;20037;-78
2021/12/28 05:49:17;;;;;;;138.35;33.58;;;5.30;99.90;;;;;;5004035;28;20546;-78
2021/12/28 05:51:43;;;;;;;135.98;33.83;;;5.30;99.90;;;;;;5012508;28;20422;-78
2021/12/28 05:54:09;;;;;;;140.18;34.53;;;5.30;99.90;;;;;;5012160;28;20040;-78
2021/12/28 05:56:36;;;;;;;134.23;35.45;;;5.30;99.90;;;;;;5000080;28;20049;-78
2021/12/28 05:59:02;;;;;;;152.60;35.83;;;5.30;99.90;;;;;;4994352;28;20579;-78
2021/12/28 06:01:28;;;;;;;139.43;35.33;;;5.20;99.90;;;;;;4996211;28;20045;-78
2021/12/28 06:03:53;;;;;;;170.98;37.95;;;5.20;99.90;;;;;;4995126;28;20113;-78
2021/12/28 06:06:19;;;;;;;140.80;35.45;;;5.10;99.90;;;;;;4995276;28;20042;-78
2021/12/28 06:08:44;;;;;;;154.07;36.20;;;5.10;99.90;;;;;;5009848;28;20040;-78
2021/12/28 06:11:13;;;;;;;135.25;36.42;;;5.00;99.90;;;;;;5010590;28;20034;-78
2021/12/28 06:13:40;;;;;;;147.75;35.63;;;5.00;99.90;;;;;;4994893;28;20121;-78
2021/12/28 06:16:07;;;;;;;123.18;33.97;;;4.90;99.90;;;;;;4994691;28;20042;-77
2021/12/28 06:18:33;;;;;;;140.82;34.40;;;5.00;99.90;;;;;;4994618;28;20480;-78
2021/12/28 06:20:58;;;;;;;132.05;34.72;;;4.90;99.90;;;;;;5003768;28;20081;-78
2021/12/28 06:23:24;;;;;;;152.90;35.45;;;4.90;99.90;;;;;;5007984;28;20037;-78
2021/12/28 06:25:50;;;;;;;114.18;31.92;;;4.80;99.90;;;;;;4998094;28;20034;-78
2021/12/28 06:28:15;;;;;;;121.57;32.83;;;4.80;99.90;;;;;;5004872;28;20045;-78
2021/12/28 06:30:41;;;;;;;137.68;33.83;;;4.80;99.90;;;;;;4984872;28;20099;-79
2021/12/28 06:33:07;;;;;;;130.27;33.45;;;4.80;99.90;;;;;;5007360;28;20030;-78
2021/12/28 06:35:33;;;;;;;133.38;33.78;;;4.80;99.90;;;;;;5005781;28;20501;-78
2021/12/28 06:37:59;;;;;;;113.38;33.13;;;4.80;99.90;;;;;;4979739;28;20644;-78
2021/12/28 06:40:24;;;;;;;103.85;31.70;;;4.70;99.90;;;;;;4991995;28;20042;-78
2021/12/28 06:42:50;;;;;;;114.68;32.35;;;4.70;99.90;;;;;;5002129;28;20792;-78
2021/12/28 06:45:16;;;;;;;117.43;31.08;;;4.70;99.90;;;;;;4999866;28;20083;-78
2021/12/28 06:47:42;;;;;;;104.00;30.58;;;4.70;99.90;;;;;;4997101;28;20041;-78
2021/12/28 06:50:08;;;;;;;116.28;31.45;;;4.70;99.90;;;;;;4997228;28;20128;-78
2021/12/28 06:52:33;;;;;;;125.35;31.15;;;4.60;99.90;;;;;;5011506;28;20176;-78
2021/12/28 06:54:59;;;;;;;106.00;28.98;;;4.60;99.90;;;;;;5008420;28;20539;-78
2021/12/28 06:57:25;;;;;;;98.07;28.95;;;4.50;99.90;;;;;;5006339;28;20050;-78
2021/12/28 06:59:51;;;;;;;93.72;28.20;;;4.50;99.90;;;;;;5009799;28;21572;-78
2021/12/28 07:02:17;;;;;;;95.88;28.60;;;4.50;99.90;;;;;;5008962;28;20070;-78
2021/12/28 07:04:43;;;;;;;105.45;28.48;;;4.50;99.90;;;;;;4991857;28;20041;-79
2021/12/28 07:07:10;;;;;;;81.53;26.63;;;4.50;99.90;;;;;;4977298;28;20121;-78
2021/12/28 07:09:36;;;;;;;88.10;26.60;;;4.50;99.90;;;;;;5002504;28;20611;-78
2021/12/28 07:12:02;;;;;;;96.03;27.25;;;4.60;99.90;;;;;;5009685;28;20125;-78
2021/12/28 07:14:28;;;;;;;86.63;25.52;;;4.50;99.90;;;;;;4999374;28;20077;-78
2021/12/28 07:16:58;;;;;;;74.88;25.73;;;4.60;99.90;;;;;;4999684;28;20069;-78
2021/12/28 07:19:24;;;;;;;75.68;24.25;;;4.60;99.90;;;;;;5004328;28;20097;-78
2021/12/28 07:21:50;;;;;;;79.88;25.42;;;4.60;99.90;;;;;;5011089;28;20045;-79
2021/12/28 07:24:16;;;;;;;76.50;24.45;;;4.60;99.90;;;;;;5004258;28;20045;-78
2021/12/28 07:26:42;;;;;;;80.38;24.30;;;4.60;99.90;;;;;;5009237;28;20065;-78
2021/12/28 07:29:07;;;;;;;78.70;24.02;;;4.70;99.90;;;;;;4991800;28;20113;-78
2021/12/28 07:31:33;;;;;;;67.18;23.42;;;4.70;99.90;;;;;;4997053;28;20068;-79
2021/12/28 07:33:59;;;;;;;80.00;24.58;;;4.80;99.90;;;;;;5007641;28;20030;-78
2021/12/28 07:36:25;;;;;;;80.20;23.48;;;4.80;99.90;;;;;;5001190;28;20126;-79
2021/12/28 07:38:51;;;;;;;69.28;23.45;;;4.80;99.90;;;;;;5004914;28;20116;-79
2021/12/28 07:41:16;;;;;;;73.90;22.63;;;4.90;99.90;;;;;;4997536;28;20092;-79
2021/12/28 07:43:43;;;;;;;74.53;22.83;;;4.90;99.90;;;;;;5001048;28;20088;-79
2021/12/28 07:46:08;;;;;;;77.35;24.73;;;4.90;99.90;;;;;;4995373;28;20034;-79
2021/12/28 07:48:34;;;;;;;80.15;21.83;;;4.90;99.90;;;;;;4993525;28;20598;-79
2021/12/28 07:51:00;;;;;;;68.57;22.38;;;4.90;99.90;;;;;;4985042;28;20440;-79
2021/12/28 07:53:26;;;;;;;75.22;22.58;;;4.90;99.90;;;;;;4999793;28;20042;-79
2021/12/28 07:55:51;;;;;;;73.97;22.45;;;4.90;99.90;;;;;;5006276;28;20037;-79
2021/12/28 07:58:17;;;;;;;61.22;21.77;;;4.90;99.90;;;;;;5008654;28;20056;-79
2021/12/28 08:00:43;;;;;;;68.93;21.45;;;5.00;99.90;;;;;;5002491;28;20124;-78
2021/12/28 08:03:09;;;;;;;74.13;22.48;;;5.00;99.90;;;;;;4997706;28;20734;-79
2021/12/28 08:05:36;;;;;;;71.43;21.77;;;5.10;99.90;;;;;;4999430;28;20395;-79
2021/12/28 08:08:02;;;;;;;65.75;20.50;;;5.10;99.90;;;;;;5000735;28;20030;-79
2021/12/28 08:10:28;;;;;;;55.67;19.92;;;5.10;99.90;;;;;;5005983;28;20084;-79
2021/12/28 08:12:54;;;;;;;67.82;20.35;;;5.10;99.90;;;;;;5001619;28;20092;-79
2021/12/28 08:15:21;;;;;;;67.30;20.95;;;5.10;99.90;;;;;;5004614;28;20046;-79
2021/12/28 08:17:47;;;;;;;61.80;20.48;;;5.20;99.90;;;;;;4989942;28;20185;-79
2021/12/28 08:20:15;;;;;;;63.72;19.80;;;5.20;99.90;;;;;;4990565;28;20132;-79
2021/12/28 08:22:41;;;;;;;56.55;18.55;;;5.10;99.90;;;;;;4992021;28;20038;-80
2021/12/28 08:25:08;;;;;;;50.45;19.02;;;5.20;99.90;;;;;;4989889;28;20503;-79
2021/12/28 08:27:34;;;;;;;63.20;19.13;;;5.20;99.90;;;;;;5001738;28;20385;-80
2021/12/28 08:29:59;;;;;;;65.88;19.85;;;5.20;99.90;;;;;;4998644;28;20045;-79
2021/12/28 08:32:25;;;;;;;58.63;18.60;;;5.20;99.90;;;;;;5002722;28;20418;-79
2021/12/28 08:34:51;;;;;;;58.80;18.88;;;5.30;99.90;;;;;;4999958;28;20037;-80
2021/12/28 08:37:16;;;;;;;50.63;18.05;;;5.20;99.90;;;;;;5004105;28;20392;-79
2021/12/28 08:39:42;;;;;;;55.90;18.75;;;5.30;99.90;;;;;;5006044;28;20042;-80
2021/12/28 08:42:08;;;;;;;52.58;18.45;;;5.30;99.90;;;;;;5001316;28;20097;-79
2021/12/28 08:44:34;;;;;;;53.05;18.08;;;5.40;99.90;;;;;;5001856;28;20042;-79
2021/12/28 08:47:00;;;;;;;61.58;19.30;;;5.40;99.90;;;;;;4999482;28;20474;-79
2021/12/28 08:49:26;;;;;;;54.35;18.08;;;5.60;99.90;;;;;;5003667;28;20046;-79
2021/12/28 08:51:52;;;;;;;48.40;17.98;;;5.50;99.90;;;;;;4992036;28;20101;-79
2021/12/28 08:54:18;;;;;;;47.10;16.42;;;5.50;99.90;;;;;;4999099;28;20140;-80
2021/12/28 08:56:45;;;;;;;51.70;17.63;;;5.50;99.90;;;;;;4997924;28;20125;-79
2021/12/28 08:59:11;;;;;;;53.05;18.88;;;5.60;99.90;;;;;;5003210;28;20049;-79
2021/12/28 09:01:37;;;;;;;49.03;17.48;;;5.70;99.90;;;;;;4987868;28;20442;-79
2021/12/28 09:04:03;;;;;;;48.75;18.15;;;5.70;99.90;;;;;;5000000;28;20034;-79
2021/12/28 09:06:28;;;;;;;54.22;18.20;;;5.80;99.90;;;;;;4998624;28;20891;-79
2021/12/28 09:08:54;;;;;;;48.15;18.30;;;5.90;99.90;;;;;;5005994;28;20504;-80
2021/12/28 09:11:20;;;;;;;48.90;17.52;;;5.90;99.90;;;;;;5006921;28;20570;-79
2021/12/28 09:13:46;;;;;;;46.47;16.90;;;6.00;99.90;;;;;;5007025;28;20046;-80
2021/12/28 09:16:12;;;;;;;44.17;16.27;;;6.00;99.90;;;;;;5005477;28;20511;-80
2021/12/28 09:18:38;;;;;;;42.92;16.33;;;6.00;99.90;;;;;;5008702;28;20400;-80
2021/12/28 09:21:04;;;;;;;41.45;16.00;;;5.90;99.90;;;;;;5009303;28;20066;-80
2021/12/28 09:23:29;;;;;;;45.47;15.75;;;5.80;99.90;;;;;;4991883;28;20375;-80
2021/12/28 09:25:55;;;;;;;42.50;14.75;;;5.80;99.90;;;;;;5006439;28;20097;-80
2021/12/28 09:28:21;;;;;;;51.28;16.35;;;5.80;99.90;;;;;;5006522;28;20044;-80
2021/12/28 09:30:46;;;;;;;39.80;15.43;;;5.90;99.90;;;;;;5006539;28;20135;-80
2021/12/28 09:33:12;;;;;;;45.03;15.70;;;5.90;99.90;;;;;;5007880;28;20065;-81
2021/12/28 09:35:38;;;;;;;42.75;14.90;;;5.90;99.90;;;;;;5007849;28;20113;-80
2021/12/28 09:38:04;;;;;;;42.38;15.93;;;5.90;99.90;;;;;;5007717;28;20399;-81
2021/12/28 09:40:32;;;;;;;35.78;12.85;;;5.90;99.90;;;;;;5007691;28;20046;-80
2021/12/28 09:42:58;;;;;;;40.63;14.40;;;5.90;99.90;;;;;;4988943;28;20045;-80
2021/12/28 09:45:24;;;;;;;36.63;13.55;;;6.00;99.90;;;;;;5006847;28;20046;-80
2021/12/28 09:47:49;;;;;;;43.47;14.65;;;6.00;99.90;;;;;;5006027;28;20029;-80
2021/12/28 09:50:16;;;;;;;42.40;14.13;;;6.10;99.90;;;;;;5006334;28;20045;-80
2021/12/28 09:52:45;;;;;;;38.28;12.65;;;6.10;99.90;;;;;;4997975;28;20076;-81
2021/12/28 09:55:13;;;;;;;40.25;13.65;;;6.10;99.90;;;;;;4991783;28;20077;-81
2021/12/28 09:57:40;;;;;;;44.15;13.02;;;6.20;99.90;;;;;;5010641;28;20064;-80
2021/12/28 10:00:07;;;;;;;38.47;13.52;;;6.20;99.90;;;;;;5004625;28;20049;-80
2021/12/28 10:02:35;;;;;;;37.53;13.88;;;6.20;99.90;;;;;;5008097;28;20143;-80
2021/12/28 10:05:13;;;;;;;46.35;13.60;;;6.20;99.90;;;;;;5000086;28;20098;-80
2021/12/28 10:07:49;;;;;;;39.22;12.75;;;6.30;99.90;;;;;;5002648;28;20512;-80
2021/12/28 10:10:15;;;;;;;41.53;13.20;;;6.40;99.90;;;;;;5006275;28;20038;-81
2021/12/28 10:12:44;;;;;;;34.15;11.57;;;6.30;99.90;;;;;;5008283;28;20150;-81
2021/12/28 10:15:21;;;;;;;40.75;12.27;;;6.40;99.90;;;;;;5006326;28;20177;-81
2021/12/28 10:17:50;;;;;;;32.65;11.32;;;6.40;99.90;;;;;;5003333;28;20108;-80
2021/12/28 10:20:20;;;;;;;30.33;11.45;;;6.40;99.90;;;;;;5009469;28;20050;-80
2021/12/28 10:22:53;;;;;;;33.95;11.82;;;6.40;99.90;;;;;;4979862;28;20042;-81
2021/12/28 10:25:20;;;;;;;34.30;11.73;;;6.40;99.90;;;;;;5019426;28;20034;-80
2021/12/28 10:27:52;;;;;;;31.10;12.07;;;6.50;99.90;;;;;;5010713;28;20037;-81
2021/12/28 10:30:38;;;;;;;36.42;11.50;;;6.40;99.90;;;;;;4993629;28;20088;-80
2021/12/28 10:33:09;;;;;;;35.97;11.77;;;6.40;99.90;;;;;;4993273;28;20128;-80
2021/12/28 10:35:39;;;;;;;35.92;11.80;;;6.50;99.90;;;;;;5007052;28;21856;-80
2021/12/28 10:38:11;;;;;;;36.10;12.82;;;6.50;99.90;;;;;;5001873;28;20578;-81
2021/12/28 10:40:44;;;;;;;37.80;12.73;;;6.50;99.90;;;;;;4980093;28;20054;-80
2021/12/28 10:43:12;;;;;;;42.05;13.00;;;6.60;99.90;;;;;;5003606;28;20046;-81
2021/12/28 10:45:59;;;;;;;30.67;11.82;;;6.50;99.90;;;;;;4999862;28;20046;-80
2021/12/28 10:48:30;;;;;;;35.47;13.18;;;6.60;99.90;;;;;;5007690;28;20117;-80
2021/12/28 10:51:01;;;;;;;31.90;12.50;;;6.50;99.90;;;;;;5005372;28;20851;-80
2021/12/28 10:53:36;;;;;;;38.17;12.75;;;6.50;99.90;;;;;;5004660;28;20045;-80
2021/12/28 10:56:04;;;;;;;37.15;13.15;;;6.50;99.90;;;;;;5000707;28;20049;-79
2021/12/28 10:58:40;;;;;;;33.20;12.95;;;6.50;99.90;;;;;;4999514;28;20045;-80
2021/12/28 11:01:33;;;;;;;35.35;12.93;;;6.50;99.90;;;;;;4982270;28;20062;-79
2021/12/28 11:04:04;;;;;;;37.40;14.45;;;6.50;99.90;;;;;;4996688;28;20102;-80
2021/12/28 11:06:36;;;;;;;37.17;15.02;;;6.50;99.90;;;;;;5000404;28;20026;-80
2021/12/28 11:09:07;;;;;;;34.25;13.70;;;6.60;99.90;;;;;;4994229;28;20117;-80
2021/12/28 11:11:35;;;;;;;33.70;13.30;;;6.60;99.90;;;;;;5001890;28;20407;-80
2021/12/28 11:14:05;;;;;;;33.33;13.18;;;6.50;99.90;;;;;;4999365;28;20065;-79
2021/12/28 11:16:32;;;;;;;34.55;14.35;;;6.60;99.90;;;;;;4978093;28;20104;-80
2021/12/28 11:19:00;;;;;;;28.02;12.85;;;6.60;99.90;;;;;;4986961;28;20108;-80
2021/12/28 11:21:31;;;;;;;34.10;13.80;;;6.50;99.90;;;;;;5007264;28;20044;-80
2021/12/28 11:24:13;;;;;;;32.08;12.95;;;6.60;99.90;;;;;;5002697;28;20416;-79
2021/12/28 11:26:45;;;;;;;32.03;13.27;;;6.60;99.90;;;;;;5005039;28;20526;-79
2021/12/28 11:29:20;;;;;;;28.75;12.80;;;6.60;99.90;;;;;;4985938;28;20053;-79
2021/12/28 11:31:50;;;;;;;25.98;12.50;;;6.60;99.90;;;;;;4996652;28;20377;-80
2021/12/28 11:34:24;;;;;;;30.17;13.55;;;6.60;99.90;;;;;;4991904;28;20513;-79
2021/12/28 11:36:55;;;;;;;32.38;13.43;;;6.60;99.90;;;;;;5001199;28;20038;-79
2021/12/28 11:39:26;;;;;;;26.67;13.10;;;6.60;99.90;;;;;;4998838;28;20065;-79
2021/12/28 11:41:53;;;;;;;26.52;13.43;;;6.60;99.90;;;;;;5003953;28;20038;-80
2021/12/28 11:44:20;;;;;;;32.90;13.80;;;6.60;99.90;;;;;;5004658;28;20049;-79
2021/12/28 11:46:47;;;;;;;28.08;13.60;;;6.70;99.90;;;;;;5008583;28;20042;-80
2021/12/28 11:49:15;;;;;;;30.80;14.00;;;6.70;99.90;;;;;;5009231;28;20045;-81
2021/12/28 11:51:42;;;;;;;30.98;14.43;;;6.70;99.90;;;;;;5007311;28;20057;-80
2021/12/28 11:54:11;;;;;;;31.33;14.57;;;6.70;99.90;;;;;;5010051;28;20662;-79
2021/12/28 11:56:41;;;;;;;25.90;13.82;;;6.70;99.90;;;;;;5002346;28;20045;-79
2021/12/28 11:59:21;;;;;;;25.42;14.52;;;6.80;99.90;;;;;;5008025;28;20041;-80
2021/12/28 12:01:54;;;;;;;28.60;15.30;;;6.80;99.90;;;;;;5006469;28;20519;-80
2021/12/28 12:04:32;;;;;;;27.73;14.88;;;6.90;99.90;;;;;;5007323;28;20503;-79
2021/12/28 12:07:26;;;;;;;31.48;14.60;;;6.90;99.90;;;;;;5004044;28;20419;-80
2021/12/28 12:09:52;;;;;;;28.67;14.63;;;6.90;99.90;;;;;;5008118;28;20611;-80
2021/12/28 12:12:19;;;;;;;28.45;14.52;;;6.90;99.90;;;;;;5003175;28;20190;-80
2021/12/28 12:14:51;;;;;;;27.48;14.77;;;6.90;99.90;;;;;;4998516;28;20061;-81
2021/12/28 12:17:26;;;;;;;24.58;13.77;;;6.90;99.90;;;;;;5005585;28;20045;-80
2021/12/28 12:19:52;;;;;;;25.02;13.55;;;6.90;99.90;;;;;;5005644;28;20411;-80
2021/12/28 12:22:30;;;;;;;24.52;13.57;;;7.00;99.90;;;;;;5001952;28;20088;-80
2021/12/28 12:24:57;;;;;;;23.05;12.88;;;7.00;99.90;;;;;;5016080;28;20099;-79
2021/12/28 12:27:47;;;;;;;20.27;12.43;;;6.90;99.90;;;;;;4999910;28;20503;-79
2021/12/28 12:30:26;;;;;;;22.27;13.30;;;7.00;99.90;;;;;;5003691;28;20048;-80
2021/12/28 12:32:58;;;;;;;25.05;12.50;;;7.00;99.90;;;;;;5004242;28;20042;-80
2021/12/28 12:35:39;;;;;;;27.02;12.75;;;7.00;99.90;;;;;;5003587;28;20108;-81
2021/12/28 12:38:14;;;;;;;25.95;12.20;;;7.00;99.90;;;;;;4995513;28;20042;-80